Time;durP1;ratioP1;P1;durP2;ratioP2;P2;SDS_P1;SDS_P2;PMS_P1;PMS_P2;Temp;Humidity;BMP_temperature;BMP_pressure;BME280_temperature;BME280_humidity;BME280_pressure;Samples;Min_cycle;Max_cycle;Signal;HPM_P1;HPM_P2
2021/06/27 00:00:22;;;;;;;0.30;0.30;;;17.90;99.90;;;;;;5089165;28;20196;-72
2021/06/27 00:02:48;;;;;;;0.68;0.68;;;17.90;99.90;;;;;;5089115;28;20271;-72
2021/06/27 00:05:18;;;;;;;0.65;0.65;;;17.80;99.90;;;;;;5103663;28;20203;-72
2021/06/27 00:07:44;;;;;;;0.10;0.10;;;17.80;99.90;;;;;;5109256;28;20156;-72
2021/06/27 00:10:16;;;;;;;0.20;0.20;;;17.70;99.90;;;;;;5109196;28;20217;-72
2021/06/27 00:12:43;;;;;;;0.22;0.22;;;17.70;99.90;;;;;;5109317;28;20156;-72
2021/06/27 00:15:34;;;;;;;1.27;0.40;;;17.80;99.90;;;;;;5109205;28;20155;-72
2021/06/27 00:18:02;;;;;;;0.38;0.38;;;17.80;99.90;;;;;;5109076;28;20156;-72
2021/06/27 00:20:30;;;;;;;0.50;0.30;;;17.90;99.90;;;;;;5090913;28;20171;-72
2021/06/27 00:22:57;;;;;;;0.40;0.40;;;18.00;99.90;;;;;;5109134;28;20170;-72
2021/06/27 00:25:27;;;;;;;1.85;1.00;;;17.80;99.90;;;;;;5108960;28;20200;-72
2021/06/27 00:27:54;;;;;;;0.28;0.28;;;17.70;99.90;;;;;;5109013;28;20156;-72
2021/06/27 00:30:22;;;;;;;7.22;0.60;;;17.70;99.90;;;;;;5109054;28;20705;-72
2021/06/27 00:32:48;;;;;;;0.10;0.10;;;17.70;99.90;;;;;;5090875;28;20170;-72
2021/06/27 00:35:16;;;;;;;0.65;0.50;;;17.60;99.90;;;;;;5107886;28;20158;-72
2021/06/27 00:37:43;;;;;;;0.63;0.63;;;17.80;99.90;;;;;;5096988;28;20187;-72
2021/06/27 00:40:12;;;;;;;0.63;0.63;;;17.70;99.90;;;;;;5092340;28;20198;-72
2021/06/27 00:42:38;;;;;;;0.55;0.55;;;17.70;99.90;;;;;;5088677;28;20190;-72
2021/06/27 00:45:08;;;;;;;0.35;0.35;;;17.70;99.90;;;;;;5101558;28;20245;-72
2021/06/27 00:47:36;;;;;;;0.82;0.80;;;17.80;99.90;;;;;;5096619;28;20240;-72
2021/06/27 00:50:09;;;;;;;0.08;0.08;;;17.80;99.90;;;;;;5088522;28;20184;-72
2021/06/27 00:52:35;;;;;;;0.20;0.20;;;17.70;99.90;;;;;;5088513;28;20159;-73
2021/06/27 00:55:01;;;;;;;0.15;0.15;;;17.70;99.90;;;;;;5088634;28;20612;-73
2021/06/27 00:57:27;;;;;;;0.65;0.65;;;17.60;99.90;;;;;;5079852;28;20168;-72
2021/06/27 00:59:54;;;;;;;0.40;0.40;;;17.60;99.90;;;;;;5068983;28;20216;-73
2021/06/27 01:02:20;;;;;;;0.82;0.82;;;17.60;99.90;;;;;;5068297;28;20166;-73
2021/06/27 01:04:46;;;;;;;0.50;0.50;;;17.70;99.90;;;;;;5050379;28;20236;-73
2021/06/27 01:07:12;;;;;;;0.38;0.38;;;17.70;99.90;;;;;;5069078;28;20672;-73
2021/06/27 01:09:39;;;;;;;0.40;0.40;;;17.80;99.90;;;;;;5072003;28;20204;-72
2021/06/27 01:12:06;;;;;;;1.23;1.13;;;17.90;99.90;;;;;;5071944;28;20298;-72
2021/06/27 01:14:32;;;;;;;0.40;0.40;;;18.00;99.90;;;;;;5053846;28;20180;-72
2021/06/27 01:16:58;;;;;;;1.58;0.90;;;17.90;99.90;;;;;;5054028;28;20263;-72
2021/06/27 01:19:32;;;;;;;1.05;0.93;;;17.80;99.90;;;;;;5071900;28;20193;-73
2021/06/27 01:21:59;;;;;;;1.27;0.52;;;17.70;99.90;;;;;;5072549;28;20172;-73
2021/06/27 01:24:26;;;;;;;0.28;0.28;;;17.70;99.90;;;;;;5071147;28;20199;-73
2021/06/27 01:26:53;;;;;;;0.35;0.30;;;17.80;99.90;;;;;;5101234;28;20264;-72
2021/06/27 01:29:19;;;;;;;0.20;0.20;;;17.80;99.90;;;;;;5093753;28;20275;-72
2021/06/27 01:31:46;;;;;;;0.52;0.52;;;18.00;99.90;;;;;;5111943;28;20203;-72
2021/06/27 01:34:13;;;;;;;0.47;0.43;;;18.10;99.90;;;;;;5093689;28;20175;-72
2021/06/27 01:36:40;;;;;;;0.40;0.40;;;18.00;99.90;;;;;;5111991;28;20164;-72
2021/06/27 01:39:07;;;;;;;0.10;0.10;;;18.20;99.90;;;;;;5111931;28;20215;-72
2021/06/27 01:41:33;;;;;;;0.30;0.30;;;18.00;99.90;;;;;;5093734;28;20184;-72
2021/06/27 01:43:59;;;;;;;0.55;0.52;;;18.00;99.90;;;;;;5093264;28;20244;-72
2021/06/27 01:46:25;;;;;;;0.00;0.00;;;18.10;99.90;;;;;;5111738;28;20275;-72
2021/06/27 01:48:51;;;;;;;0.20;0.20;;;18.10;99.90;;;;;;5093476;28;20201;-73
2021/06/27 01:51:17;;;;;;;0.30;0.30;;;17.90;99.90;;;;;;5111737;28;20168;-73
2021/06/27 01:53:43;;;;;;;0.70;0.70;;;17.60;99.90;;;;;;5111747;28;20238;-73
2021/06/27 01:56:09;;;;;;;0.15;0.15;;;17.40;99.90;;;;;;5093608;28;20163;-73
2021/06/27 01:58:37;;;;;;;0.43;0.22;;;17.30;99.90;;;;;;5093201;28;20255;-73
2021/06/27 02:01:06;;;;;;;0.10;0.10;;;17.30;99.90;;;;;;5091302;28;20205;-73
2021/06/27 02:03:33;;;;;;;0.50;0.50;;;17.20;99.90;;;;;;5091383;28;20735;-73
2021/06/27 02:05:59;;;;;;;0.55;0.55;;;17.20;99.90;;;;;;5091282;28;20183;-73
2021/06/27 02:08:37;;;;;;;0.20;0.20;;;17.10;99.90;;;;;;5073083;28;20195;-73
2021/06/27 02:11:05;;;;;;;0.20;0.17;;;17.10;99.90;;;;;;5091320;28;20152;-73
2021/06/27 02:13:31;;;;;;;0.32;0.20;;;17.00;99.90;;;;;;5091232;28;20156;-73
2021/06/27 02:15:57;;;;;;;1.30;1.20;;;17.00;99.90;;;;;;5091154;28;20160;-74
2021/06/27 02:18:26;;;;;;;0.15;0.15;;;17.00;99.90;;;;;;5090318;28;20195;-73
2021/06/27 02:20:52;;;;;;;0.15;0.15;;;17.00;99.90;;;;;;5090820;28;20176;-73
2021/06/27 02:23:18;;;;;;;0.05;0.05;;;17.00;99.90;;;;;;5075698;28;20201;-73
2021/06/27 02:25:45;;;;;;;0.10;0.10;;;17.00;99.90;;;;;;5070760;28;20185;-73
2021/06/27 02:28:11;;;;;;;0.20;0.20;;;16.90;99.90;;;;;;5070855;28;20163;-73
2021/06/27 02:30:38;;;;;;;0.00;0.00;;;16.70;99.90;;;;;;5070806;28;20225;-73
2021/06/27 02:33:05;;;;;;;0.35;0.35;;;16.70;99.90;;;;;;5070677;28;20185;-73
2021/06/27 02:35:31;;;;;;;0.22;0.22;;;16.70;99.90;;;;;;5070648;28;20189;-73
2021/06/27 02:37:58;;;;;;;0.20;0.20;;;16.60;99.90;;;;;;5070700;28;20161;-73
2021/06/27 02:40:24;;;;;;;0.10;0.10;;;16.60;99.90;;;;;;5052561;28;20180;-73
2021/06/27 02:42:50;;;;;;;0.40;0.38;;;16.50;99.90;;;;;;5052639;28;20224;-73
2021/06/27 02:45:16;;;;;;;0.25;0.25;;;16.60;99.90;;;;;;5070219;28;20318;-73
2021/06/27 02:47:42;;;;;;;0.10;0.10;;;16.60;99.90;;;;;;5070515;28;20184;-73
2021/06/27 02:50:12;;;;;;;0.10;0.10;;;16.60;99.90;;;;;;5070386;28;20165;-73
2021/06/27 02:52:39;;;;;;;0.00;0.00;;;16.50;99.90;;;;;;5070230;28;20271;-73
2021/06/27 02:55:06;;;;;;;0.20;0.20;;;16.50;99.90;;;;;;5052304;28;20169;-73
2021/06/27 02:57:33;;;;;;;0.10;0.10;;;16.50;99.90;;;;;;5079647;28;20251;-73
2021/06/27 02:59:59;;;;;;;0.10;0.10;;;16.60;99.90;;;;;;5090051;28;20175;-73
2021/06/27 03:02:25;;;;;;;0.00;0.00;;;16.70;99.90;;;;;;5072178;28;20196;-73
2021/06/27 03:04:51;;;;;;;0.38;0.38;;;16.70;99.90;;;;;;5072070;28;20180;-73
2021/06/27 03:07:17;;;;;;;0.00;0.00;;;16.60;99.90;;;;;;5090185;28;20156;-73
2021/06/27 03:09:43;;;;;;;0.17;0.17;;;16.60;99.90;;;;;;5090076;28;20156;-73
2021/06/27 03:12:11;;;;;;;0.10;0.10;;;16.60;99.90;;;;;;5089945;28;20211;-73
2021/06/27 03:14:38;;;;;;;0.10;0.10;;;16.50;99.90;;;;;;5089940;28;20153;-73
2021/06/27 03:17:04;;;;;;;0.30;0.30;;;16.60;99.90;;;;;;5089922;28;20230;-73
2021/06/27 03:19:30;;;;;;;0.13;0.13;;;16.70;99.90;;;;;;5089931;28;20156;-73
2021/06/27 03:21:56;;;;;;;0.32;0.32;;;16.80;99.90;;;;;;5089747;28;20186;-73
2021/06/27 03:24:22;;;;;;;0.52;0.52;;;16.70;99.90;;;;;;5071745;28;20218;-73
2021/06/27 03:26:48;;;;;;;0.20;0.20;;;16.60;99.90;;;;;;5089765;28;20188;-73
2021/06/27 03:29:14;;;;;;;0.40;0.40;;;16.50;99.90;;;;;;5071836;28;20175;-73
2021/06/27 03:31:40;;;;;;;0.43;0.43;;;16.70;99.90;;;;;;5089671;28;20165;-73
2021/06/27 03:34:06;;;;;;;1.02;0.88;;;16.70;99.90;;;;;;5089533;28;20648;-73
2021/06/27 03:36:32;;;;;;;0.00;0.00;;;16.70;99.90;;;;;;5089586;28;20697;-73
2021/06/27 03:39:19;;;;;;;0.10;0.10;;;16.70;99.90;;;;;;5089607;28;20168;-73
2021/06/27 03:41:53;;;;;;;2.55;1.40;;;16.70;99.90;;;;;;5089583;28;20152;-73
2021/06/27 03:44:24;;;;;;;0.10;0.10;;;16.70;99.90;;;;;;5089391;28;20216;-73
2021/06/27 03:46:50;;;;;;;0.28;0.28;;;16.80;99.90;;;;;;5089424;28;20191;-73
2021/06/27 03:49:17;;;;;;;0.00;0.00;;;16.80;99.90;;;;;;5089448;28;20178;-73
2021/06/27 03:51:43;;;;;;;0.20;0.20;;;16.80;99.90;;;;;;5089578;28;20179;-73
2021/06/27 03:54:10;;;;;;;0.30;0.22;;;16.80;99.90;;;;;;5089384;28;20187;-73
2021/06/27 03:56:36;;;;;;;0.20;0.20;;;16.80;99.90;;;;;;5089296;28;20160;-73
2021/06/27 03:59:03;;;;;;;0.05;0.05;;;16.70;99.90;;;;;;5089320;28;20161;-73
2021/06/27 04:01:29;;;;;;;0.65;0.65;;;16.70;99.90;;;;;;5067774;28;20188;-73
2021/06/27 04:03:55;;;;;;;0.43;0.43;;;16.60;99.90;;;;;;5069153;28;20208;-73
2021/06/27 04:06:21;;;;;;;0.30;0.30;;;16.70;99.90;;;;;;5069135;28;20302;-73
2021/06/27 04:08:47;;;;;;;0.05;0.05;;;16.90;99.90;;;;;;5069175;28;20168;-73
2021/06/27 04:11:13;;;;;;;0.03;0.03;;;17.10;99.90;;;;;;5069158;28;20236;-73
2021/06/27 04:13:39;;;;;;;0.10;0.10;;;17.10;99.90;;;;;;5068994;28;20192;-73
2021/06/27 04:16:06;;;;;;;0.00;0.00;;;17.00;99.90;;;;;;5069066;28;20524;-73
2021/06/27 04:18:34;;;;;;;0.65;0.65;;;16.90;99.90;;;;;;5069062;28;20512;-73
2021/06/27 04:21:00;;;;;;;0.10;0.10;;;17.00;99.90;;;;;;5069060;28;20210;-73
2021/06/27 04:23:30;;;;;;;0.45;0.45;;;17.00;99.90;;;;;;5068980;28;20188;-72
2021/06/27 04:25:56;;;;;;;0.30;0.20;;;16.90;99.90;;;;;;5068852;28;20260;-73
2021/06/27 04:28:22;;;;;;;1.20;1.10;;;16.80;99.90;;;;;;5068914;28;20161;-73
2021/06/27 04:30:48;;;;;;;0.10;0.10;;;16.90;99.90;;;;;;5068852;28;20180;-73
2021/06/27 04:33:14;;;;;;;0.20;0.20;;;16.90;99.90;;;;;;5068922;28;20236;-73
2021/06/27 04:35:40;;;;;;;0.22;0.22;;;16.90;99.90;;;;;;5068876;28;20236;-73
2021/06/27 04:38:09;;;;;;;0.20;0.20;;;17.60;99.90;;;;;;5068896;28;20153;-73
2021/06/27 04:40:36;;;;;;;0.52;0.52;;;18.30;99.90;;;;;;5050910;28;20224;-73
2021/06/27 04:43:04;;;;;;;0.15;0.15;;;19.50;99.90;;;;;;5053149;28;20204;-73
2021/06/27 04:45:30;;;;;;;0.10;0.10;;;20.10;99.90;;;;;;5072588;28;20224;-73
2021/06/27 04:47:55;;;;;;;0.45;0.45;;;21.00;99.90;;;;;;5072728;28;20629;-73
2021/06/27 04:50:21;;;;;;;0.20;0.20;;;21.60;99.90;;;;;;5072763;28;20172;-73
2021/06/27 04:52:51;;;;;;;1.00;0.93;;;21.90;99.90;;;;;;5054587;28;20192;-73
2021/06/27 04:55:20;;;;;;;0.00;0.00;;;22.20;99.90;;;;;;5072688;28;20240;-73
2021/06/27 04:57:47;;;;;;;0.08;0.08;;;22.90;99.90;;;;;;5083863;28;20167;-74
2021/06/27 05:00:14;;;;;;;13.15;0.43;;;23.10;99.90;;;;;;5084208;28;20183;-73
2021/06/27 05:02:40;;;;;;;0.13;0.13;;;23.60;99.90;;;;;;5054405;28;20214;-73
2021/06/27 05:05:07;;;;;;;0.52;0.52;;;23.80;99.90;;;;;;5072310;28;20167;-73
2021/06/27 05:07:34;;;;;;;0.45;0.45;;;22.90;99.90;;;;;;5072449;28;20172;-73
2021/06/27 05:10:00;;;;;;;0.00;0.00;;;22.20;99.90;;;;;;5072327;28;20195;-73
2021/06/27 05:12:27;;;;;;;0.17;0.17;;;21.70;99.90;;;;;;5054170;28;20199;-72
2021/06/27 05:14:54;;;;;;;0.77;0.30;;;21.30;99.90;;;;;;5054275;28;20167;-73
2021/06/27 05:17:21;;;;;;;0.00;0.00;;;21.30;99.90;;;;;;5072036;28;20157;-73
2021/06/27 05:19:47;;;;;;;0.25;0.25;;;21.60;99.90;;;;;;5072139;28;20243;-73
2021/06/27 05:22:13;;;;;;;0.00;0.00;;;22.30;99.90;;;;;;5072057;28;20203;-73
2021/06/27 05:24:39;;;;;;;0.30;0.30;;;22.00;99.90;;;;;;5072107;28;20216;-73
2021/06/27 05:27:05;;;;;;;0.20;0.15;;;22.00;99.90;;;;;;5072014;28;20631;-73
2021/06/27 05:29:31;;;;;;;0.10;0.10;;;22.20;99.90;;;;;;5071891;28;20165;-72
2021/06/27 05:31:57;;;;;;;0.00;0.00;;;22.60;99.90;;;;;;5071946;28;20156;-72
2021/06/27 05:34:23;;;;;;;0.00;0.00;;;23.10;99.90;;;;;;5071972;28;20216;-73
2021/06/27 05:36:48;;;;;;;0.10;0.10;;;23.30;99.90;;;;;;5071914;28;20605;-73
2021/06/27 05:39:15;;;;;;;0.20;0.20;;;23.50;99.90;;;;;;5071913;28;20160;-73
2021/06/27 05:41:43;;;;;;;0.10;0.10;;;24.10;99.90;;;;;;5053667;28;20222;-73
2021/06/27 05:44:08;;;;;;;0.55;0.43;;;24.70;99.90;;;;;;5071393;28;20216;-72
2021/06/27 05:46:34;;;;;;;0.10;0.10;;;25.20;99.90;;;;;;5070931;28;20214;-73
2021/06/27 05:49:05;;;;;;;0.03;0.00;;;25.90;99.90;;;;;;5071215;28;20159;-73
2021/06/27 05:51:33;;;;;;;0.15;0.10;;;26.50;99.90;;;;;;5071583;28;20198;-73
2021/06/27 05:53:59;;;;;;;0.17;0.17;;;26.10;99.90;;;;;;5052438;28;20701;-73
2021/06/27 05:56:25;;;;;;;0.20;0.20;;;26.00;99.90;;;;;;5053595;28;20172;-73
2021/06/27 05:58:51;;;;;;;0.10;0.10;;;26.70;99.90;;;;;;5091516;28;20167;-73
2021/06/27 06:01:18;;;;;;;0.00;0.00;;;27.70;99.90;;;;;;5091231;28;20262;-73
2021/06/27 06:03:45;;;;;;;0.28;0.28;;;28.30;99.90;;;;;;5091406;28;20164;-73
2021/06/27 06:06:12;;;;;;;0.55;0.55;;;29.00;99.90;;;;;;5073132;28;20199;-73
2021/06/27 06:08:41;;;;;;;0.20;0.20;;;29.40;99.90;;;;;;5091328;28;20181;-73
2021/06/27 06:11:11;;;;;;;0.50;0.50;;;29.20;99.90;;;;;;5091109;28;20187;-73
2021/06/27 06:13:38;;;;;;;0.10;0.10;;;28.50;99.90;;;;;;5091236;28;20159;-73
2021/06/27 06:16:06;;;;;;;0.20;0.20;;;28.40;99.90;;;;;;5091200;28;20194;-73
2021/06/27 06:18:33;;;;;;;1.75;0.63;;;28.50;99.90;;;;;;5091181;28;20246;-73
2021/06/27 06:20:59;;;;;;;0.10;0.10;;;29.00;99.90;;;;;;5091063;28;20259;-73
2021/06/27 06:23:25;;;;;;;0.10;0.10;;;29.70;99.90;;;;;;5073205;28;20235;-73
2021/06/27 06:25:52;;;;;;;0.30;0.30;;;29.80;99.90;;;;;;5090970;28;20309;-73
2021/06/27 06:28:18;;;;;;;0.20;0.20;;;29.00;99.90;;;;;;5090799;28;20194;-73
2021/06/27 06:30:44;;;;;;;1.13;1.02;;;29.60;99.90;;;;;;5090784;28;20155;-73
2021/06/27 06:33:12;;;;;;;0.20;0.20;;;29.20;99.90;;;;;;5078339;28;20183;-73
2021/06/27 06:35:42;;;;;;;0.10;0.10;;;29.00;99.90;;;;;;5092704;28;20202;-73
2021/06/27 06:38:10;;;;;;;0.30;0.30;;;29.40;99.90;;;;;;5111138;28;20210;-73
2021/06/27 06:40:37;;;;;;;0.17;0.17;;;29.20;99.90;;;;;;5110972;28;20165;-73
2021/06/27 06:43:05;;;;;;;0.45;0.45;;;29.40;99.90;;;;;;5092510;28;20409;-73
2021/06/27 06:45:32;;;;;;;0.17;0.17;;;29.40;99.90;;;;;;5092401;28;20294;-72
2021/06/27 06:47:58;;;;;;;0.00;0.00;;;29.00;99.90;;;;;;5092512;28;20159;-73
2021/06/27 06:50:24;;;;;;;0.05;0.05;;;28.90;99.90;;;;;;5110790;28;20159;-72
2021/06/27 06:52:50;;;;;;;0.20;0.20;;;29.30;99.90;;;;;;5110678;28;20191;-72
2021/06/27 06:55:16;;;;;;;0.35;0.32;;;28.80;99.90;;;;;;5110685;28;20161;-73
2021/06/27 06:57:42;;;;;;;0.38;0.38;;;28.30;99.90;;;;;;5099584;28;20644;-73
2021/06/27 07:00:10;;;;;;;0.20;0.20;;;28.40;99.90;;;;;;5072005;28;20186;-73
2021/06/27 07:02:39;;;;;;;0.20;0.20;;;28.20;99.90;;;;;;5090193;28;20179;-72
2021/06/27 07:05:07;;;;;;;0.00;0.00;;;28.40;99.90;;;;;;5089769;28;20164;-72
2021/06/27 07:07:34;;;;;;;0.32;0.32;;;29.20;99.90;;;;;;5090148;28;20166;-73
2021/06/27 07:10:00;;;;;;;0.15;0.15;;;30.30;99.90;;;;;;5072175;28;20632;-72
2021/06/27 07:12:26;;;;;;;1.20;0.40;;;30.80;99.90;;;;;;5072001;28;20294;-72
2021/06/27 07:14:52;;;;;;;0.22;0.20;;;29.80;99.90;;;;;;5090087;28;20187;-72
2021/06/27 07:17:18;;;;;;;0.30;0.20;;;30.70;99.90;;;;;;5090063;28;20163;-73
2021/06/27 07:19:43;;;;;;;0.13;0.13;;;31.60;99.90;;;;;;5089894;28;20160;-72
2021/06/27 07:22:09;;;;;;;0.13;0.13;;;31.40;99.90;;;;;;5089779;28;20191;-73
2021/06/27 07:24:35;;;;;;;0.13;0.13;;;30.10;99.90;;;;;;5089714;28;20177;-72
2021/06/27 07:27:01;;;;;;;0.40;0.20;;;29.00;99.90;;;;;;5072003;28;20263;-73
2021/06/27 07:29:28;;;;;;;0.20;0.20;;;29.00;99.90;;;;;;5089420;28;20154;-72
2021/06/27 07:31:54;;;;;;;0.55;0.40;;;28.80;99.90;;;;;;5089551;28;20728;-72
2021/06/27 07:34:21;;;;;;;0.10;0.10;;;29.50;99.90;;;;;;5089666;28;20213;-72
2021/06/27 07:36:46;;;;;;;0.35;0.35;;;31.30;99.90;;;;;;5089422;28;20238;-72
2021/06/27 07:39:12;;;;;;;0.32;0.32;;;32.10;99.90;;;;;;5088793;28;20171;-73
2021/06/27 07:41:38;;;;;;;0.32;0.25;;;32.90;99.90;;;;;;5088795;28;20217;-72
2021/06/27 07:44:04;;;;;;;0.40;0.32;;;33.20;99.90;;;;;;5063054;28;20223;-73
2021/06/27 07:46:30;;;;;;;1.05;0.60;;;32.80;99.90;;;;;;5048530;28;20185;-72
2021/06/27 07:48:56;;;;;;;1.27;0.90;;;31.00;99.90;;;;;;5047182;28;20184;-73
2021/06/27 07:51:22;;;;;;;0.55;0.43;;;30.80;99.90;;;;;;5048764;28;20199;-73
2021/06/27 07:53:48;;;;;;;1.05;0.40;;;31.60;99.90;;;;;;5048489;28;20168;-73
2021/06/27 07:56:14;;;;;;;0.15;0.15;;;30.30;99.90;;;;;;5048607;28;20165;-72
2021/06/27 07:58:40;;;;;;;0.45;0.45;;;30.70;99.90;;;;;;5047700;28;20169;-73
2021/06/27 08:01:06;;;;;;;0.20;0.20;;;31.60;99.90;;;;;;5046068;28;20200;-73
2021/06/27 08:03:32;;;;;;;0.75;0.40;;;30.90;99.90;;;;;;5048690;28;20188;-72
2021/06/27 08:05:58;;;;;;;0.20;0.17;;;29.40;99.90;;;;;;5048030;28;20184;-72
2021/06/27 08:08:23;;;;;;;0.40;0.40;;;29.40;99.90;;;;;;5047506;28;20153;-72
2021/06/27 08:10:49;;;;;;;0.30;0.25;;;29.50;99.90;;;;;;5047192;28;20559;-73
2021/06/27 08:13:15;;;;;;;1.15;0.50;;;30.10;99.90;;;;;;5048449;28;20165;-72
2021/06/27 08:15:41;;;;;;;0.10;0.10;;;30.00;99.90;;;;;;5048522;28;20157;-72
2021/06/27 08:18:07;;;;;;;0.20;0.20;;;30.50;99.90;;;;;;5047580;28;20512;-72
2021/06/27 08:20:33;;;;;;;0.22;0.20;;;31.30;99.90;;;;;;5048466;28;20165;-72
2021/06/27 08:22:59;;;;;;;0.20;0.20;;;32.10;99.90;;;;;;5046866;28;20228;-72
2021/06/27 08:25:26;;;;;;;0.10;0.10;;;31.40;99.90;;;;;;5048328;28;20196;-73
2021/06/27 08:27:52;;;;;;;0.25;0.25;;;31.50;99.90;;;;;;5048064;28;20529;-72
2021/06/27 08:30:19;;;;;;;0.20;0.20;;;31.20;99.90;;;;;;5048437;28;20157;-72
2021/06/27 08:32:47;;;;;;;0.40;0.40;;;31.70;99.90;;;;;;5048383;28;20195;-72
2021/06/27 08:35:18;;;;;;;0.55;0.25;;;31.10;99.90;;;;;;5048099;28;20157;-72
2021/06/27 08:37:45;;;;;;;0.10;0.10;;;32.20;99.90;;;;;;5047017;28;20173;-72
2021/06/27 08:40:13;;;;;;;1.05;0.50;;;32.90;99.90;;;;;;5048369;28;20192;-72
2021/06/27 08:42:40;;;;;;;0.20;0.20;;;32.10;99.90;;;;;;5048226;28;20665;-72
2021/06/27 08:45:08;;;;;;;0.38;0.25;;;32.00;99.90;;;;;;5073412;28;20238;-72
2021/06/27 08:47:35;;;;;;;0.32;0.30;;;32.90;99.90;;;;;;5088357;28;20171;-72
2021/06/27 08:50:04;;;;;;;0.20;0.15;;;32.90;99.90;;;;;;5087995;28;20148;-72
2021/06/27 08:52:32;;;;;;;0.55;0.47;;;32.70;99.90;;;;;;5088252;28;20194;-72
2021/06/27 08:54:58;;;;;;;0.38;0.30;;;32.30;99.90;;;;;;5088310;28;20625;-72
2021/06/27 08:57:24;;;;;;;0.20;0.20;;;31.10;99.90;;;;;;5088082;28;20163;-72
2021/06/27 08:59:52;;;;;;;0.10;0.10;;;30.30;99.90;;;;;;5087921;28;20173;-72
2021/06/27 09:02:18;;;;;;;0.77;0.77;;;30.20;99.90;;;;;;5088152;28;20555;-72
2021/06/27 09:04:45;;;;;;;0.20;0.20;;;29.50;99.90;;;;;;5088145;28;20258;-72
2021/06/27 09:07:30;;;;;;;0.32;0.32;;;30.00;99.90;;;;;;5087997;28;20179;-72
2021/06/27 09:10:23;;;;;;;0.32;0.30;;;30.70;99.90;;;;;;5088132;28;20646;-72
2021/06/27 09:12:56;;;;;;;0.28;0.28;;;32.10;99.90;;;;;;5088050;28;20183;-72
2021/06/27 09:15:45;;;;;;;0.10;0.10;;;32.60;99.90;;;;;;5069916;28;20182;-72
2021/06/27 09:18:14;;;;;;;0.20;0.20;;;32.30;99.90;;;;;;5088108;28;20242;-72
2021/06/27 09:21:01;;;;;;;0.20;0.20;;;31.70;99.90;;;;;;5087821;28;20156;-72
2021/06/27 09:23:53;;;;;;;0.03;0.03;;;31.30;99.90;;;;;;5069326;28;20183;-73
2021/06/27 09:26:32;;;;;;;0.43;0.40;;;32.30;99.90;;;;;;5084113;28;20215;-74
2021/06/27 09:28:59;;;;;;;1.65;1.52;;;34.00;99.90;;;;;;5071936;28;20183;-74
2021/06/27 09:31:36;;;;;;;0.20;0.20;;;34.40;99.90;;;;;;5091410;28;20247;-73
2021/06/27 09:34:04;;;;;;;0.03;0.03;;;33.20;99.90;;;;;;5091591;28;20171;-73
2021/06/27 09:36:31;;;;;;;0.30;0.30;;;32.90;99.90;;;;;;5081598;28;20191;-74
2021/06/27 09:38:57;;;;;;;0.08;0.08;;;33.40;99.90;;;;;;5080195;28;20168;-74
2021/06/27 09:41:36;;;;;;;0.30;0.10;;;32.50;99.90;;;;;;5087132;28;20199;-73
2021/06/27 09:44:09;;;;;;;0.28;0.20;;;31.30;99.90;;;;;;5091177;28;20218;-73
2021/06/27 09:46:35;;;;;;;0.20;0.20;;;30.90;99.90;;;;;;5091268;28;20199;-73
2021/06/27 09:49:07;;;;;;;0.13;0.10;;;31.60;99.90;;;;;;5091401;28;20170;-73
2021/06/27 09:51:34;;;;;;;0.20;0.20;;;32.30;99.90;;;;;;5091225;28;20191;-73
2021/06/27 09:54:00;;;;;;;0.03;0.03;;;31.70;99.90;;;;;;5091237;28;20219;-73
2021/06/27 09:56:28;;;;;;;0.52;0.52;;;31.90;99.90;;;;;;5091008;28;20191;-73
2021/06/27 09:58:53;;;;;;;0.10;0.10;;;32.90;99.90;;;;;;5071141;28;20580;-73
2021/06/27 10:01:23;;;;;;;0.10;0.10;;;34.10;99.90;;;;;;5089184;28;20254;-74
2021/06/27 10:03:54;;;;;;;0.10;0.10;;;34.80;99.90;;;;;;5073203;28;20243;-74
2021/06/27 10:06:30;;;;;;;0.15;0.15;;;34.50;99.90;;;;;;5090911;28;20233;-73
2021/06/27 10:09:09;;;;;;;0.30;0.30;;;34.20;99.90;;;;;;5072946;28;20190;-73
2021/06/27 10:11:35;;;;;;;1.20;0.20;;;33.40;99.90;;;;;;5090975;28;20213;-73
2021/06/27 10:14:09;;;;;;;0.10;0.10;;;33.60;99.90;;;;;;5090906;28;20160;-73
2021/06/27 10:16:35;;;;;;;0.20;0.20;;;33.90;99.90;;;;;;5090954;28;20175;-73
2021/06/27 10:19:02;;;;;;;0.20;0.20;;;33.00;99.90;;;;;;5071144;28;20184;-74
2021/06/27 10:21:29;;;;;;;0.20;0.20;;;32.60;99.90;;;;;;5070424;28;20253;-74
2021/06/27 10:23:56;;;;;;;0.32;0.20;;;32.20;99.90;;;;;;5052431;28;20173;-73
2021/06/27 10:26:24;;;;;;;0.25;0.20;;;34.10;99.90;;;;;;5070567;28;20192;-73
2021/06/27 10:28:52;;;;;;;0.50;0.50;;;33.40;99.90;;;;;;5070276;28;20187;-74
2021/06/27 10:31:22;;;;;;;0.17;0.17;;;33.00;99.90;;;;;;5052354;28;20188;-74
2021/06/27 10:33:48;;;;;;;0.20;0.20;;;32.30;99.90;;;;;;5070490;28;20538;-74
2021/06/27 10:36:52;;;;;;;0.52;0.40;;;33.40;99.90;;;;;;5070432;28;20285;-74
2021/06/27 10:39:19;;;;;;;0.10;0.10;;;33.90;99.90;;;;;;4953299;28;20190;-74
2021/06/27 10:42:07;;;;;;;0.10;0.10;;;34.20;99.90;;;;;;5050383;28;20295;-74
2021/06/27 10:44:38;;;;;;;1.33;0.85;;;34.00;99.90;;;;;;5070064;28;20212;-74
2021/06/27 10:47:06;;;;;;;0.22;0.22;;;34.40;99.90;;;;;;5070096;28;20211;-75
2021/06/27 10:49:33;;;;;;;0.32;0.30;;;34.50;99.90;;;;;;5073358;28;20180;-74
2021/06/27 10:52:04;;;;;;;0.52;0.38;;;35.30;99.90;;;;;;5078744;28;20200;-74
2021/06/27 10:54:35;;;;;;;0.10;0.10;;;35.60;99.90;;;;;;5070176;28;20166;-74
2021/06/27 10:57:04;;;;;;;0.35;0.35;;;32.50;99.90;;;;;;5074936;28;20172;-73
2021/06/27 10:59:38;;;;;;;0.20;0.20;;;30.80;99.90;;;;;;5087104;28;20171;-74
2021/06/27 11:02:23;;;;;;;0.20;0.20;;;32.60;99.90;;;;;;5070071;28;20190;-74
2021/06/27 11:04:51;;;;;;;0.15;0.15;;;31.40;99.90;;;;;;5069714;28;20188;-74
2021/06/27 11:07:33;;;;;;;0.28;0.28;;;31.60;99.90;;;;;;5052035;28;20260;-74
2021/06/27 11:10:35;;;;;;;0.20;0.20;;;32.00;99.90;;;;;;5069791;28;20149;-74
2021/06/27 11:13:01;;;;;;;0.90;0.57;;;31.50;99.90;;;;;;4991841;28;20248;-73
2021/06/27 11:15:32;;;;;;;0.32;0.32;;;30.60;99.90;;;;;;5006267;28;20198;-74
2021/06/27 11:17:59;;;;;;;0.25;0.25;;;31.30;99.90;;;;;;4991790;28;20265;-74
2021/06/27 11:20:28;;;;;;;0.82;0.17;;;30.60;99.90;;;;;;5008109;28;20237;-74
2021/06/27 11:22:56;;;;;;;0.40;0.40;;;29.90;99.90;;;;;;5005918;28;20267;-74
2021/06/27 11:25:41;;;;;;;0.30;0.30;;;29.60;99.90;;;;;;5007751;28;20185;-73
2021/06/27 11:31:26;;;;;;;0.10;0.10;;;28.00;99.90;;;;;;5007929;28;20185;-72
2021/06/27 11:34:20;;;;;;;0.10;0.10;;;27.50;99.90;;;;;;5006813;28;20185;-72
2021/06/27 11:36:49;;;;;;;0.25;0.25;;;28.30;99.90;;;;;;5007778;28;20201;-72
2021/06/27 11:39:42;;;;;;;0.30;0.30;;;29.30;99.90;;;;;;5007758;28;20170;-72
2021/06/27 11:42:26;;;;;;;0.50;0.50;;;30.30;99.90;;;;;;5007679;28;20261;-72
2021/06/27 11:45:07;;;;;;;0.65;0.65;;;31.00;99.90;;;;;;5007535;28;20260;-72
2021/06/27 11:47:37;;;;;;;0.20;0.20;;;30.50;99.90;;;;;;5053115;28;20184;-72
2021/06/27 11:50:21;;;;;;;0.20;0.20;;;31.10;99.90;;;;;;5051174;28;20172;-72
2021/06/27 11:52:55;;;;;;;0.32;0.32;;;31.20;99.90;;;;;;5068099;28;20183;-72
2021/06/27 11:55:40;;;;;;;0.80;0.40;;;30.70;99.90;;;;;;5069054;28;20523;-72
2021/06/27 11:58:28;;;;;;;0.52;0.43;;;31.50;99.90;;;;;;5083102;28;20171;-72
2021/06/27 12:00:53;;;;;;;0.28;0.28;;;31.60;99.90;;;;;;5055756;28;20176;-72
2021/06/27 12:03:22;;;;;;;0.32;0.32;;;31.80;99.90;;;;;;5069018;28;20152;-72
2021/06/27 12:06:03;;;;;;;0.40;0.40;;;31.00;99.90;;;;;;5068838;28;20195;-72
2021/06/27 12:08:29;;;;;;;0.32;0.32;;;30.10;99.90;;;;;;5051050;28;20194;-72
2021/06/27 12:10:58;;;;;;;0.30;0.30;;;30.20;99.90;;;;;;5068764;28;20531;-72
2021/06/27 12:13:26;;;;;;;0.40;0.35;;;30.10;99.90;;;;;;5050858;28;20184;-72
2021/06/27 12:15:57;;;;;;;0.30;0.30;;;29.90;99.90;;;;;;5068879;28;20160;-72
2021/06/27 12:18:29;;;;;;;0.52;0.40;;;29.90;99.90;;;;;;5068823;28;20268;-72
2021/06/27 12:20:57;;;;;;;0.10;0.10;;;29.90;99.90;;;;;;5068779;28;20163;-72
2021/06/27 12:23:37;;;;;;;0.82;0.32;;;29.90;99.90;;;;;;5068759;28;20175;-72
2021/06/27 12:26:18;;;;;;;0.40;0.40;;;30.10;99.90;;;;;;5067128;28;20206;-72
2021/06/27 12:28:55;;;;;;;0.32;0.32;;;29.40;99.90;;;;;;5088656;28;20163;-72
2021/06/27 12:31:24;;;;;;;0.25;0.25;;;28.90;99.90;;;;;;5088774;28;20652;-72
2021/06/27 12:33:55;;;;;;;0.40;0.40;;;28.10;99.90;;;;;;5088702;28;20162;-72
2021/06/27 12:36:31;;;;;;;1.38;0.40;;;27.90;99.90;;;;;;5088654;28;20615;-72
2021/06/27 12:39:01;;;;;;;0.25;0.20;;;27.80;99.90;;;;;;5088617;28;20197;-72
2021/06/27 12:41:35;;;;;;;0.35;0.35;;;28.30;99.90;;;;;;5088684;28;20172;-72
2021/06/27 12:44:07;;;;;;;1.17;1.15;;;28.80;99.90;;;;;;5088614;28;20230;-72
2021/06/27 12:46:48;;;;;;;1.30;0.82;;;29.20;99.90;;;;;;5070704;28;20226;-72
2021/06/27 12:49:29;;;;;;;0.38;0.38;;;29.10;99.90;;;;;;5088607;28;20199;-72
2021/06/27 12:52:03;;;;;;;0.60;0.60;;;29.10;99.90;;;;;;5070527;28;20179;-72
2021/06/27 12:54:37;;;;;;;0.70;0.55;;;28.90;99.90;;;;;;5070538;28;20163;-72
2021/06/27 12:57:12;;;;;;;0.73;0.50;;;28.40;99.90;;;;;;5088513;28;20178;-72
2021/06/27 12:59:38;;;;;;;0.20;0.20;;;28.20;99.90;;;;;;5070328;28;20210;-71